createdAt,value
2018-10-19T00:00:02.952Z,81.00
2018-10-19T00:02:32.110Z,81.40
2018-10-19T00:05:01.267Z,82.50
2018-10-19T00:07:30.397Z,83.50
2018-10-19T00:09:59.529Z,85.30
2018-10-19T00:12:28.782Z,86.00
2018-10-19T00:14:57.944Z,87.20
2018-10-19T00:17:27.113Z,87.10
2018-10-19T00:19:56.217Z,86.90
2018-10-19T00:22:25.400Z,85.70
2018-10-19T00:24:54.579Z,85.20
2018-10-19T00:27:23.801Z,83.70
2018-10-19T00:29:52.987Z,83.90
2018-10-19T00:32:22.406Z,82.80
2018-10-19T00:34:51.564Z,83.10
2018-10-19T00:37:21.053Z,83.20
2018-10-19T00:39:50.252Z,84.90
2018-10-19T00:42:19.440Z,85.50
2018-10-19T00:44:48.595Z,86.60
2018-10-19T00:47:17.725Z,87.50
2018-10-19T00:49:46.949Z,88.00
2018-10-19T00:52:16.347Z,88.40
2018-10-19T00:54:45.471Z,88.30
2018-10-19T00:57:14.761Z,88.40
2018-10-19T00:59:44.488Z,88.50
2018-10-19T01:02:13.617Z,88.00
2018-10-19T01:04:42.841Z,88.00
2018-10-19T01:07:12.009Z,87.70
2018-10-19T01:09:41.144Z,87.70
2018-10-19T01:12:10.284Z,87.60
2018-10-19T01:14:39.435Z,87.50
2018-10-19T01:17:08.664Z,89.00
2018-10-19T01:19:37.805Z,89.90
2018-10-19T01:22:06.985Z,90.60
2018-10-19T01:24:36.744Z,90.30
2018-10-19T01:27:06.292Z,89.70
2018-10-19T01:29:35.433Z,89.30
2018-10-19T01:32:04.592Z,89.20
2018-10-19T01:34:34.510Z,87.80
2018-10-19T01:37:05.066Z,86.80
2018-10-19T01:39:34.252Z,86.80
2018-10-19T01:42:03.414Z,86.70
2018-10-19T01:44:32.677Z,86.50
2018-10-19T01:47:02.547Z,87.40
2018-10-19T01:49:31.708Z,88.50
2018-10-19T01:52:00.876Z,88.70
2018-10-19T01:54:30.017Z,88.30
2018-10-19T01:56:59.256Z,90.10
2018-10-19T01:59:28.445Z,89.90
2018-10-19T02:01:57.709Z,89.70
2018-10-19T02:04:26.880Z,88.40
2018-10-19T02:06:56.079Z,88.50
2018-10-19T02:09:25.344Z,87.90
2018-10-19T02:11:54.591Z,87.70
2018-10-19T02:14:23.895Z,87.30
2018-10-19T02:16:53.123Z,87.30
2018-10-19T02:19:22.294Z,88.00
2018-10-19T02:21:51.487Z,87.50
2018-10-19T02:24:20.704Z,87.80
2018-10-19T02:26:49.882Z,89.10
2018-10-19T02:29:18.998Z,89.30
2018-10-19T02:31:48.222Z,88.90
2018-10-19T02:34:17.468Z,88.20
2018-10-19T02:36:46.654Z,87.90
2018-10-19T02:39:15.895Z,88.20
2018-10-19T02:41:44.972Z,87.70
2018-10-19T02:44:14.151Z,87.50
2018-10-19T02:46:43.304Z,89.00
2018-10-19T02:49:12.484Z,89.60
2018-10-19T02:51:42.460Z,89.40
2018-10-19T02:54:11.977Z,89.30
2018-10-19T02:56:41.226Z,89.10
2018-10-19T02:59:10.495Z,87.50
2018-10-19T03:01:39.634Z,87.10
2018-10-19T03:04:08.865Z,87.60
2018-10-19T03:06:38.652Z,89.60
2018-10-19T03:09:10.501Z,90.10
2018-10-19T03:11:40.510Z,91.50
2018-10-19T03:14:09.709Z,91.60
2018-10-19T03:16:38.980Z,91.20
2018-10-19T03:19:08.378Z,92.20
2018-10-19T03:21:37.513Z,92.00
2018-10-19T03:24:06.660Z,92.00
2018-10-19T03:26:35.823Z,90.70
2018-10-19T03:29:05.177Z,89.60
2018-10-19T03:31:34.346Z,89.20
2018-10-19T03:34:03.696Z,88.70
2018-10-19T03:36:32.838Z,88.70
2018-10-19T03:39:02.218Z,88.40
2018-10-19T03:41:31.286Z,88.80
2018-10-19T03:44:00.524Z,89.20
2018-10-19T03:46:29.684Z,90.20
2018-10-19T03:48:58.969Z,90.50
2018-10-19T03:51:28.005Z,90.70
2018-10-19T03:53:57.204Z,91.50
2018-10-19T03:56:26.435Z,92.40
2018-10-19T03:58:55.689Z,92.80
2018-10-19T04:01:24.828Z,93.00
2018-10-19T04:03:54.124Z,92.50
2018-10-19T04:06:29.634Z,92.70
2018-10-19T04:08:58.825Z,92.30
2018-10-19T04:11:27.978Z,91.90
2018-10-19T04:13:57.155Z,91.70
2018-10-19T04:16:26.420Z,91.50
2018-10-19T04:18:55.603Z,91.00
2018-10-19T04:21:24.757Z,90.90
2018-10-19T04:23:53.954Z,90.60
2018-10-19T04:26:23.117Z,92.00
2018-10-19T04:28:52.290Z,92.10
2018-10-19T04:31:21.556Z,93.00
2018-10-19T04:33:50.811Z,93.20
2018-10-19T04:36:20.017Z,93.40
2018-10-19T04:38:49.809Z,92.90
2018-10-19T04:41:19.683Z,92.60
2018-10-19T04:43:48.779Z,92.10
2018-10-19T04:46:17.997Z,92.00
2018-10-19T04:48:47.176Z,91.90
2018-10-19T04:51:16.472Z,91.80
2018-10-19T04:53:46.021Z,91.20
2018-10-19T04:56:15.144Z,91.70
2018-10-19T04:58:44.270Z,92.20
2018-10-19T05:01:13.445Z,91.30
2018-10-19T05:03:42.580Z,91.30
2018-10-19T05:06:11.938Z,90.90
2018-10-19T05:08:41.054Z,91.00
2018-10-19T05:11:10.357Z,91.90
2018-10-19T05:13:40.145Z,92.30
2018-10-19T05:16:09.350Z,93.40
2018-10-19T05:18:39.163Z,93.40
2018-10-19T05:21:08.265Z,93.40
2018-10-19T05:23:37.401Z,93.10
2018-10-19T05:26:06.683Z,93.10
2018-10-19T05:28:35.903Z,93.40
2018-10-19T05:31:05.124Z,93.00
2018-10-19T05:33:34.893Z,92.60
2018-10-19T05:36:04.216Z,92.90
2018-10-19T05:38:33.964Z,92.50
2018-10-19T05:41:03.175Z,92.00
2018-10-19T05:43:34.977Z,91.80
2018-10-19T05:46:04.129Z,92.50
2018-10-19T05:48:33.249Z,91.80
2018-10-19T05:51:02.905Z,91.50
2018-10-19T05:53:32.168Z,91.50
2018-10-19T05:56:02.153Z,91.50
2018-10-19T05:58:31.242Z,91.70
2018-10-19T06:01:01.097Z,92.20
2018-10-19T06:03:30.299Z,92.50
2018-10-19T06:05:59.420Z,92.40
2018-10-19T06:08:28.691Z,92.90
2018-10-19T06:10:57.859Z,93.50
2018-10-19T06:13:27.496Z,93.60
2018-10-19T06:15:56.626Z,93.50
2018-10-19T06:18:25.773Z,94.50
2018-10-19T06:20:55.791Z,94.40
2018-10-19T06:23:24.989Z,94.30
2018-10-19T06:25:54.169Z,93.80
2018-10-19T06:28:23.409Z,94.60
2018-10-19T06:30:52.663Z,95.30
2018-10-19T06:33:21.829Z,97.40
2018-10-19T06:35:51.679Z,94.80
2018-10-19T06:38:21.000Z,95.00
2018-10-19T06:40:50.297Z,94.70
2018-10-19T06:43:19.466Z,93.90
2018-10-19T06:45:48.713Z,90.20
2018-10-19T06:48:17.949Z,88.40
2018-10-19T06:50:47.104Z,83.60
2018-10-19T06:53:16.294Z,82.60
2018-10-19T06:55:46.145Z,80.60
2018-10-19T06:58:15.257Z,78.70
2018-10-19T07:00:44.401Z,78.30
2018-10-19T07:03:13.616Z,76.90
2018-10-19T07:05:42.913Z,75.70
2018-10-19T07:08:12.774Z,75.70
2018-10-19T07:10:42.575Z,76.60
2018-10-19T07:13:11.701Z,78.00
2018-10-19T07:15:40.909Z,76.10
2018-10-19T07:18:10.095Z,74.60
2018-10-19T07:20:39.273Z,73.60
2018-10-19T07:23:08.574Z,70.70
2018-10-19T07:25:37.756Z,68.10
2018-10-19T07:28:06.984Z,65.50
2018-10-19T07:30:36.273Z,65.50
2018-10-19T07:33:05.411Z,64.50
2018-10-19T07:35:35.268Z,65.00
2018-10-19T07:38:04.667Z,63.30
2018-10-19T07:40:33.811Z,64.40
2018-10-19T07:43:03.018Z,62.60
2018-10-19T07:45:32.630Z,63.00
2018-10-19T07:48:02.562Z,62.30
2018-10-19T07:50:32.198Z,62.40
2018-10-19T07:53:01.719Z,62.50
2018-10-19T07:55:30.816Z,63.40
2018-10-19T07:57:59.938Z,64.00
2018-10-19T08:00:29.140Z,64.30
2018-10-19T08:02:58.216Z,64.90
2018-10-19T08:05:27.384Z,65.00
2018-10-19T08:07:56.637Z,66.50
2018-10-19T08:10:25.812Z,65.20
2018-10-19T08:12:55.106Z,64.70
2018-10-19T08:15:25.412Z,62.90
2018-10-19T08:17:54.640Z,61.90
2018-10-19T08:20:23.788Z,62.70
2018-10-19T08:22:53.092Z,62.10
2018-10-19T08:25:22.879Z,63.70
2018-10-19T08:27:51.979Z,63.10
2018-10-19T08:30:21.131Z,64.50
2018-10-19T08:32:50.293Z,65.20
2018-10-19T08:35:19.990Z,65.70
2018-10-19T08:37:49.150Z,65.50
2018-10-19T08:40:18.389Z,64.80
2018-10-19T08:42:47.637Z,64.20
2018-10-19T08:45:16.884Z,63.50
2018-10-19T08:47:46.057Z,63.10
2018-10-19T08:50:15.163Z,61.70
2018-10-19T08:52:44.280Z,62.50
2018-10-19T08:55:14.114Z,61.90
2018-10-19T08:57:43.906Z,61.30
2018-10-19T09:00:13.416Z,59.70
2018-10-19T09:02:42.762Z,58.50
2018-10-19T09:05:12.628Z,57.10
2018-10-19T09:07:42.395Z,56.50
2018-10-19T09:10:11.516Z,56.50
2018-10-19T09:12:40.807Z,55.40
2018-10-19T09:15:09.982Z,56.90
2018-10-19T09:17:39.216Z,57.90
2018-10-19T09:20:08.856Z,58.00
2018-10-19T09:22:37.968Z,57.90
2018-10-19T09:25:07.167Z,56.30
2018-10-19T09:27:36.571Z,56.00
2018-10-19T09:30:06.854Z,55.10
2018-10-19T09:32:36.009Z,56.90
2018-10-19T09:35:05.891Z,56.90
2018-10-19T09:37:35.005Z,57.20
2018-10-19T09:40:05.089Z,54.70
2018-10-19T09:42:34.209Z,55.60
2018-10-19T09:45:03.467Z,55.10
2018-10-19T09:47:32.689Z,55.80
2018-10-19T09:50:01.776Z,55.00
2018-10-19T09:52:31.204Z,53.70
2018-10-19T09:55:00.528Z,53.60
2018-10-19T09:57:29.695Z,52.50
2018-10-19T09:59:59.428Z,53.40
2018-10-19T10:02:28.622Z,53.50
2018-10-19T10:04:57.883Z,53.00
2018-10-19T10:07:27.069Z,52.50
2018-10-19T10:09:56.333Z,52.80
2018-10-19T10:12:25.471Z,52.00
2018-10-19T10:14:54.636Z,51.60
2018-10-19T10:17:23.697Z,52.20
2018-10-19T10:19:52.918Z,52.70
2018-10-19T10:22:22.174Z,51.60
2018-10-19T10:24:52.239Z,49.80
2018-10-19T10:27:21.336Z,49.80
2018-10-19T10:29:50.498Z,49.60
2018-10-19T10:32:19.635Z,48.30
2018-10-19T10:34:48.702Z,48.60
2018-10-19T10:37:18.589Z,48.20
2018-10-19T10:39:48.307Z,46.80
2018-10-19T10:42:17.429Z,44.40
2018-10-19T10:44:46.598Z,44.40
2018-10-19T10:47:16.318Z,42.90
2018-10-19T10:49:45.471Z,41.90
2018-10-19T10:52:14.656Z,41.80
2018-10-19T10:54:43.730Z,41.90
2018-10-19T10:57:12.819Z,42.50
2018-10-19T10:59:42.027Z,43.70
2018-10-19T11:02:11.307Z,44.30
2018-10-19T11:04:40.630Z,44.50
2018-10-19T11:07:09.841Z,44.90
2018-10-19T11:09:38.935Z,45.00
2018-10-19T11:12:08.633Z,43.40
2018-10-19T11:14:37.798Z,42.40
2018-10-19T11:17:06.909Z,42.80
2018-10-19T11:19:36.075Z,41.60
2018-10-19T11:22:05.393Z,41.40
2018-10-19T11:24:35.191Z,41.90
2018-10-19T11:27:04.661Z,42.20
2018-10-19T11:29:34.544Z,41.40
2018-10-19T11:32:03.707Z,40.80
2018-10-19T11:34:32.979Z,38.80
2018-10-19T11:37:02.211Z,38.60
2018-10-19T11:39:31.998Z,37.80
2018-10-19T11:42:01.175Z,37.40
2018-10-19T11:44:30.499Z,36.90
2018-10-19T11:47:01.230Z,35.70
2018-10-19T11:49:30.765Z,35.10
2018-10-19T11:51:59.901Z,34.30
2018-10-19T11:54:29.066Z,33.80
2018-10-19T11:56:58.752Z,35.50
2018-10-19T11:59:28.100Z,36.00
2018-10-19T12:01:57.376Z,35.60
2018-10-19T12:04:26.608Z,36.60
2018-10-19T12:06:55.784Z,36.20
2018-10-19T12:09:24.932Z,37.00
2018-10-19T12:11:54.089Z,35.40
2018-10-19T12:14:23.288Z,36.30
2018-10-19T12:16:52.596Z,36.60
2018-10-19T12:19:21.673Z,36.00
2018-10-19T12:21:50.826Z,36.30
2018-10-19T12:24:19.945Z,36.10
2018-10-19T12:26:49.115Z,35.70
2018-10-19T12:29:18.257Z,34.80
2018-10-19T12:31:47.329Z,33.90
2018-10-19T12:34:16.527Z,33.80
2018-10-19T12:36:45.733Z,33.20
2018-10-19T12:39:16.107Z,34.70
2018-10-19T12:41:45.223Z,35.00
2018-10-19T12:44:14.409Z,36.00
2018-10-19T12:46:54.829Z,36.80
2018-10-19T12:49:24.344Z,37.10
2018-10-19T12:51:53.475Z,37.30
2018-10-19T12:54:22.661Z,38.30
2018-10-19T12:56:51.757Z,38.70
2018-10-19T12:59:20.885Z,38.50
2018-10-19T13:01:50.009Z,38.70
2018-10-19T13:04:19.110Z,39.10
2018-10-19T13:06:48.280Z,39.40
2018-10-19T13:09:17.522Z,39.90
2018-10-19T13:11:47.343Z,41.10
2018-10-19T13:14:17.238Z,41.80
2018-10-19T13:16:46.381Z,41.80
2018-10-19T13:19:15.829Z,41.90
2018-10-19T13:21:45.016Z,42.00
2018-10-19T13:24:14.305Z,41.50
2018-10-19T13:26:43.409Z,41.60
2018-10-19T13:29:12.551Z,40.40
2018-10-19T13:31:41.732Z,39.80
2018-10-19T13:34:10.863Z,37.90
2018-10-19T13:36:40.035Z,36.80
2018-10-19T13:39:10.778Z,36.40
2018-10-19T13:41:40.214Z,37.10
2018-10-19T13:44:09.690Z,38.10
2018-10-19T13:46:38.992Z,38.30
2018-10-19T13:49:08.156Z,38.50
2018-10-19T13:51:37.422Z,39.40
2018-10-19T13:54:06.676Z,38.60
2018-10-19T13:56:35.917Z,39.00
2018-10-19T13:59:05.384Z,38.50
2018-10-19T14:01:34.492Z,37.40
2018-10-19T14:04:03.656Z,37.60
2018-10-19T14:06:33.508Z,37.70
2018-10-19T14:09:02.750Z,38.20
2018-10-19T14:11:31.958Z,38.90
2018-10-19T14:14:01.132Z,38.40
2018-10-19T14:16:30.393Z,38.20
2018-10-19T14:18:59.610Z,38.40
2018-10-19T14:21:29.694Z,38.10
2018-10-19T14:23:58.898Z,38.40
2018-10-19T14:26:28.823Z,38.50
2018-10-19T14:28:57.970Z,39.30
2018-10-19T14:31:28.315Z,39.80
2018-10-19T14:33:57.482Z,41.50
2018-10-19T14:36:26.800Z,42.00
2018-10-19T14:38:56.047Z,41.10
2018-10-19T14:41:25.146Z,42.00
2018-10-19T14:43:54.320Z,40.90
2018-10-19T14:46:23.553Z,40.10
2018-10-19T14:48:52.785Z,40.30
2018-10-19T14:51:22.002Z,41.70
2018-10-19T14:53:51.769Z,41.90
2018-10-19T14:56:20.896Z,41.90
2018-10-19T14:58:50.012Z,42.10
2018-10-19T15:01:19.240Z,41.90
2018-10-19T15:03:49.240Z,42.10
2018-10-19T15:06:19.106Z,43.90
2018-10-19T15:08:48.235Z,44.60
2018-10-19T15:11:17.651Z,45.60
2018-10-19T15:13:47.370Z,45.10
2018-10-19T15:16:17.062Z,45.80
2018-10-19T15:18:46.349Z,45.10
2018-10-19T15:21:15.472Z,45.10
2018-10-19T15:23:44.633Z,46.10
2018-10-19T15:26:13.882Z,45.90
2018-10-19T15:28:43.172Z,46.70
2018-10-19T15:31:12.324Z,46.70
2018-10-19T15:33:41.494Z,46.70
2018-10-19T15:36:10.837Z,47.30
2018-10-19T15:38:39.926Z,47.40
2018-10-19T15:41:09.056Z,47.20
2018-10-19T15:43:39.434Z,47.30
2018-10-19T15:46:08.576Z,47.60
2018-10-19T15:48:37.695Z,47.60
2018-10-19T15:51:07.024Z,48.10
2018-10-19T15:53:36.141Z,48.40
2018-10-19T15:56:05.516Z,49.40
2018-10-19T15:58:34.669Z,49.50
2018-10-19T16:01:03.805Z,50.10
2018-10-19T16:03:32.936Z,50.30
2018-10-19T16:06:02.259Z,51.00
2018-10-19T16:08:31.454Z,51.60
2018-10-19T16:11:00.856Z,52.00
2018-10-19T16:13:30.664Z,52.40
2018-10-19T16:15:59.867Z,53.20
2018-10-19T16:18:29.031Z,53.20
2018-10-19T16:20:59.556Z,53.60
2018-10-19T16:23:28.805Z,54.20
2018-10-19T16:25:57.992Z,54.40
2018-10-19T16:28:27.326Z,54.90
2018-10-19T16:30:56.453Z,55.40
2018-10-19T16:33:26.514Z,55.90
2018-10-19T16:35:55.756Z,56.30
2018-10-19T16:38:24.974Z,57.10
2018-10-19T16:40:54.814Z,57.60
2018-10-19T16:43:24.034Z,58.10
2018-10-19T16:45:53.340Z,58.90
2018-10-19T16:48:23.003Z,59.40
2018-10-19T16:50:52.181Z,60.00
2018-10-19T16:53:21.347Z,60.20
2018-10-19T16:55:50.801Z,60.20
2018-10-19T16:58:20.534Z,61.40
2018-10-19T17:00:49.707Z,62.10
2018-10-19T17:03:18.882Z,62.30
2018-10-19T17:05:47.972Z,62.70
2018-10-19T17:08:17.925Z,63.50
2018-10-19T17:10:48.061Z,63.70
2018-10-19T17:13:18.683Z,64.00
2018-10-19T17:15:47.879Z,63.90
2018-10-19T17:18:17.067Z,63.90
2018-10-19T17:20:47.460Z,63.80
2018-10-19T17:23:16.597Z,63.80
2018-10-19T17:25:46.296Z,64.00
2018-10-19T17:28:15.707Z,64.30
2018-10-19T17:30:44.989Z,64.30
2018-10-19T17:33:15.112Z,64.80
2018-10-19T17:35:44.802Z,65.60
2018-10-19T17:38:14.622Z,66.30
2018-10-19T17:40:43.767Z,66.50
2018-10-19T17:43:12.923Z,67.30
2018-10-19T17:45:42.084Z,67.50
2018-10-19T17:48:11.917Z,67.80
2018-10-19T17:50:41.680Z,68.70
2018-10-19T17:53:10.859Z,68.80
2018-10-19T17:55:39.955Z,69.70
2018-10-19T17:58:09.794Z,70.50
2018-10-19T18:00:39.019Z,70.80
2018-10-19T18:03:08.936Z,71.10
2018-10-19T18:05:38.011Z,71.50
2018-10-19T18:08:07.196Z,71.90
2018-10-19T18:10:37.254Z,72.50
2018-10-19T18:13:06.769Z,73.20
2018-10-19T18:15:36.695Z,73.90
2018-10-19T18:18:05.856Z,73.40
2018-10-19T18:20:35.186Z,74.20
2018-10-19T18:23:04.689Z,75.60
2018-10-19T18:25:33.698Z,75.90
2018-10-19T18:28:02.904Z,76.20
2018-10-19T18:30:32.112Z,77.30
2018-10-19T18:33:01.196Z,77.80
2018-10-19T18:35:30.335Z,77.40
2018-10-19T18:37:59.568Z,77.20
2018-10-19T18:40:28.788Z,77.80
2018-10-19T18:42:57.950Z,78.50
2018-10-19T18:45:27.891Z,77.70
2018-10-19T18:47:57.038Z,77.70
2018-10-19T18:50:26.805Z,78.60
2018-10-19T18:52:56.491Z,78.60
2018-10-19T18:55:25.589Z,78.50
2018-10-19T18:57:55.150Z,78.30
2018-10-19T19:00:25.349Z,79.20
2018-10-19T19:02:54.503Z,79.10
2018-10-19T19:05:23.630Z,80.20
2018-10-19T19:07:53.619Z,81.00
2018-10-19T19:10:22.772Z,81.50
2018-10-19T19:12:57.237Z,82.40
2018-10-19T19:15:26.486Z,84.20
2018-10-19T19:17:56.452Z,84.80
2018-10-19T19:20:26.170Z,84.60
2018-10-19T19:22:55.310Z,83.90
2018-10-19T19:25:30.287Z,85.00
2018-10-19T19:27:59.472Z,85.60
2018-10-19T19:30:28.810Z,84.00
2018-10-19T19:33:03.819Z,82.60
2018-10-19T19:35:33.163Z,82.60
2018-10-19T19:38:02.350Z,82.40
2018-10-19T19:40:35.757Z,83.10
2018-10-19T19:43:05.938Z,83.00
2018-10-19T19:45:35.135Z,83.40
2018-10-19T19:48:09.701Z,84.20
2018-10-19T19:50:38.907Z,84.20
2018-10-19T19:53:08.238Z,85.20
2018-10-19T19:55:37.859Z,86.00
2018-10-19T19:58:07.030Z,88.10
2018-10-19T20:00:36.492Z,88.90
2018-10-19T20:03:05.794Z,88.90
2018-10-19T20:08:04.556Z,86.20
2018-10-19T20:10:33.716Z,87.10
2018-10-19T20:13:03.876Z,87.70
2018-10-19T20:15:33.117Z,87.80
2018-10-19T20:18:02.405Z,87.90
2018-10-19T20:20:31.624Z,87.60
2018-10-19T20:23:01.577Z,87.40
2018-10-19T20:25:30.705Z,88.30
2018-10-19T20:27:59.884Z,87.90
2018-10-19T20:30:29.022Z,87.30
2018-10-19T20:32:58.158Z,87.80
2018-10-19T20:35:27.269Z,88.00
2018-10-19T20:37:56.855Z,90.30
2018-10-19T20:40:25.987Z,90.10
2018-10-19T20:42:55.794Z,90.60
2018-10-19T20:45:25.048Z,90.60
2018-10-19T20:47:54.220Z,89.80
2018-10-19T20:50:24.213Z,89.70
2018-10-19T20:52:53.593Z,88.00
2018-10-19T20:55:23.524Z,88.10
2018-10-19T20:57:53.068Z,88.40
2018-10-19T21:00:22.308Z,88.10
2018-10-19T21:02:51.486Z,89.70
2018-10-19T21:05:20.670Z,90.50
2018-10-19T21:07:49.874Z,90.80
2018-10-19T21:10:19.101Z,91.70
2018-10-19T21:12:48.273Z,91.00
2018-10-19T21:15:17.443Z,90.40
2018-10-19T21:17:46.725Z,89.60
2018-10-19T21:20:16.019Z,90.00
2018-10-19T21:22:45.180Z,91.00
2018-10-19T21:25:14.309Z,91.70
2018-10-19T21:27:43.481Z,93.50
2018-10-19T21:30:13.231Z,94.10
2018-10-19T21:32:42.564Z,92.80
2018-10-19T21:35:12.314Z,90.70
2018-10-19T21:37:41.459Z,91.20
2018-10-19T21:40:10.733Z,90.70
2018-10-19T21:42:39.954Z,91.00
2018-10-19T21:45:09.414Z,91.50
2018-10-19T21:47:38.535Z,91.30
2018-10-19T21:50:08.691Z,90.90
2018-10-19T21:52:37.891Z,90.90
2018-10-19T21:55:08.663Z,91.50
2018-10-19T21:57:37.978Z,92.10
2018-10-19T22:00:08.146Z,91.70
2018-10-19T22:02:37.360Z,91.30
2018-10-19T22:05:06.763Z,92.10
2018-10-19T22:07:36.001Z,92.70
2018-10-19T22:10:05.365Z,92.50
2018-10-19T22:12:34.681Z,94.40
2018-10-19T22:15:04.008Z,94.50
2018-10-19T22:17:33.231Z,95.30
2018-10-19T22:20:02.358Z,97.90
2018-10-19T22:22:32.244Z,99.80
2018-10-19T22:25:01.573Z,99.80
2018-10-19T22:27:30.685Z,99.30
2018-10-19T22:29:59.911Z,98.40
2018-10-19T22:32:29.850Z,98.00
2018-10-19T22:35:00.236Z,97.90
2018-10-19T22:37:29.360Z,97.60
2018-10-19T22:39:58.585Z,95.80
2018-10-19T22:42:27.797Z,95.40
2018-10-19T22:44:57.019Z,95.60
2018-10-19T22:47:26.253Z,94.30
2018-10-19T22:49:56.129Z,93.80
2018-10-19T22:52:25.324Z,93.60
2018-10-19T22:54:55.068Z,93.10
2018-10-19T22:57:24.193Z,92.90
2018-10-19T22:59:53.426Z,93.00
2018-10-19T23:02:22.598Z,94.00
2018-10-19T23:04:51.793Z,93.30
2018-10-19T23:07:21.047Z,92.70
2018-10-19T23:09:50.213Z,93.40
2018-10-19T23:12:19.332Z,93.10
2018-10-19T23:14:48.562Z,95.20
2018-10-19T23:17:17.682Z,95.80
2018-10-19T23:19:47.859Z,94.10
2018-10-19T23:22:16.993Z,92.00
2018-10-19T23:24:46.123Z,91.20
2018-10-19T23:27:15.234Z,90.80
2018-10-19T23:29:44.984Z,92.00
2018-10-19T23:32:14.253Z,94.00
2018-10-19T23:34:43.590Z,94.70
2018-10-19T23:37:12.780Z,95.50
2018-10-19T23:39:41.845Z,95.80
2018-10-19T23:42:10.943Z,96.20
2018-10-19T23:44:40.930Z,96.00
2018-10-19T23:47:10.277Z,95.90
2018-10-19T23:49:39.441Z,94.30
2018-10-19T23:52:08.660Z,93.10
2018-10-19T23:54:37.853Z,92.60
2018-10-19T23:57:07.777Z,92.10
2018-10-19T23:59:37.027Z,94.00
